createdAt,value
2022-12-11T00:00:40.067Z,97110.09
2022-12-11T00:03:10.226Z,97099.53
2022-12-11T00:05:41.029Z,97100.84
2022-12-11T00:08:08.179Z,97100.44
2022-12-11T00:10:38.030Z,97096.13
2022-12-11T00:13:05.555Z,97091.44
2022-12-11T00:15:32.296Z,97089.97
2022-12-11T00:17:58.983Z,97089.38
2022-12-11T00:20:25.661Z,97092.00
2022-12-11T00:22:52.370Z,97088.25
2022-12-11T00:25:18.951Z,97082.22
2022-12-11T00:27:47.063Z,97088.28
2022-12-11T00:30:14.485Z,97090.19
2022-12-11T00:32:41.469Z,97095.28
2022-12-11T00:35:08.692Z,97094.56
2022-12-11T00:37:35.669Z,97100.97
2022-12-11T00:40:02.357Z,97102.75
2022-12-11T00:42:29.320Z,97102.91
2022-12-11T00:44:56.497Z,97092.03
2022-12-11T00:47:23.135Z,97092.25
2022-12-11T00:49:50.270Z,97104.97
2022-12-11T00:52:18.504Z,97085.56
2022-12-11T00:54:45.785Z,97098.16
2022-12-11T00:57:12.397Z,97101.13
2022-12-11T00:59:39.518Z,97105.84
2022-12-11T01:02:06.187Z,97113.50
2022-12-11T01:04:35.789Z,97124.13
2022-12-11T01:07:02.526Z,97124.31
2022-12-11T01:09:47.672Z,97124.94
2022-12-11T01:12:14.233Z,97137.06
2022-12-11T01:14:41.096Z,97130.34
2022-12-11T01:17:07.739Z,97130.00
2022-12-11T01:19:34.317Z,97125.31
2022-12-11T01:22:01.165Z,97129.91
2022-12-11T01:24:28.684Z,97128.91
2022-12-11T01:26:57.492Z,97121.22
2022-12-11T01:29:24.090Z,97122.59
2022-12-11T01:31:50.857Z,97115.56
2022-12-11T01:34:17.380Z,97113.47
2022-12-11T01:36:44.039Z,97131.94
2022-12-11T01:39:10.757Z,97130.16
2022-12-11T01:41:37.398Z,97126.25
2022-12-11T01:44:15.836Z,97125.59
2022-12-11T01:46:44.318Z,97122.69
2022-12-11T01:49:13.851Z,97125.00
2022-12-11T01:52:19.364Z,97139.03
2022-12-11T01:54:48.887Z,97124.38
2022-12-11T01:57:16.456Z,97128.38
2022-12-11T01:59:46.517Z,97126.25
2022-12-11T02:02:39.686Z,97130.53
2022-12-11T02:05:08.487Z,97121.31
2022-12-11T02:07:41.168Z,97118.75
2022-12-11T02:10:08.966Z,97120.25
2022-12-11T02:12:44.869Z,97125.22
2022-12-11T02:15:25.452Z,97123.31
2022-12-11T02:18:04.159Z,97128.59
2022-12-11T02:20:44.017Z,97133.63
2022-12-11T02:23:13.740Z,97130.25
2022-12-11T02:25:52.776Z,97127.63
2022-12-11T02:28:43.345Z,97120.72
2022-12-11T02:31:36.802Z,97117.81
2022-12-11T02:34:07.595Z,97108.22
2022-12-11T02:36:38.717Z,97115.22
2022-12-11T02:39:07.500Z,97113.72
2022-12-11T02:41:34.421Z,97114.16
2022-12-11T02:44:02.969Z,97125.41
2022-12-11T02:46:31.318Z,97122.13
2022-12-11T02:48:58.365Z,97128.53
2022-12-11T02:51:28.173Z,97128.91
2022-12-11T02:53:58.028Z,97125.00
2022-12-11T02:56:32.958Z,97114.25
2022-12-11T02:59:06.063Z,97125.88
2022-12-11T03:01:32.686Z,97115.97
2022-12-11T03:03:59.511Z,97113.13
2022-12-11T03:06:32.912Z,97120.91
2022-12-11T03:08:59.757Z,97120.28
2022-12-11T03:11:26.380Z,97121.94
2022-12-11T03:13:54.152Z,97122.97
2022-12-11T03:16:29.929Z,97120.63
2022-12-11T03:19:20.290Z,97114.75
2022-12-11T03:21:55.328Z,97123.91
2022-12-11T03:24:34.840Z,97127.38
2022-12-11T03:27:31.068Z,97129.50
2022-12-11T03:30:04.070Z,97136.91
2022-12-11T03:32:38.649Z,97133.59
2022-12-11T03:35:23.399Z,97135.00
2022-12-11T03:37:52.731Z,97137.16
2022-12-11T03:40:22.263Z,97137.59
2022-12-11T03:42:51.878Z,97137.81
2022-12-11T03:45:20.849Z,97143.38
2022-12-11T03:47:48.289Z,97132.91
2022-12-11T03:50:18.183Z,97142.97
2022-12-11T03:52:48.226Z,97142.31
2022-12-11T03:55:16.916Z,97146.16
2022-12-11T03:57:43.778Z,97134.41
2022-12-11T04:00:17.240Z,97138.97
2022-12-11T04:02:45.217Z,97144.31
2022-12-11T04:05:12.409Z,97136.53
2022-12-11T04:07:39.404Z,97136.88
2022-12-11T04:10:06.320Z,97135.63
2022-12-11T04:12:32.921Z,97123.13
2022-12-11T04:15:02.404Z,97130.69
2022-12-11T04:17:52.804Z,97123.38
2022-12-11T04:20:39.068Z,97123.19
2022-12-11T04:23:26.564Z,97123.19
2022-12-11T04:25:53.131Z,97138.91
2022-12-11T04:28:19.912Z,97132.94
2022-12-11T04:30:50.137Z,97130.59
2022-12-11T04:33:17.022Z,97132.97
2022-12-11T04:35:43.620Z,97118.13
2022-12-11T04:38:10.249Z,97117.97
2022-12-11T04:40:36.970Z,97116.88
2022-12-11T04:43:03.667Z,97113.50
2022-12-11T04:45:30.433Z,97117.34
2022-12-11T04:47:57.078Z,97116.78
2022-12-11T04:50:23.835Z,97107.97
2022-12-11T04:52:51.075Z,97105.84
2022-12-11T04:55:17.840Z,97108.16
2022-12-11T04:57:44.452Z,97111.25
2022-12-11T05:00:12.910Z,97103.25
2022-12-11T05:02:41.351Z,97111.13
2022-12-11T05:05:10.324Z,97112.09
2022-12-11T05:07:37.932Z,97105.06
2022-12-11T05:10:05.675Z,97103.44
2022-12-11T05:12:32.798Z,97100.09
2022-12-11T05:14:59.294Z,97105.63
2022-12-11T05:17:25.999Z,97110.47
2022-12-11T05:19:52.670Z,97100.19
2022-12-11T05:22:19.321Z,97093.75
2022-12-11T05:24:46.071Z,97099.47
2022-12-11T05:27:13.157Z,97100.31
2022-12-11T05:29:39.707Z,97104.69
2022-12-11T05:32:06.656Z,97093.47
2022-12-11T05:34:33.155Z,97099.91
2022-12-11T05:36:59.887Z,97094.19
2022-12-11T05:39:26.821Z,97106.06
2022-12-11T05:41:53.490Z,97100.88
2022-12-11T05:44:20.310Z,97105.59
2022-12-11T05:46:47.473Z,97104.94
2022-12-11T05:49:14.295Z,97102.44
2022-12-11T05:51:41.509Z,97110.72
2022-12-11T05:54:10.878Z,97112.78
2022-12-11T05:56:38.546Z,97113.69
2022-12-11T05:59:06.793Z,97117.06
2022-12-11T06:01:34.826Z,97115.13
2022-12-11T06:04:02.860Z,97121.56
2022-12-11T06:06:29.582Z,97115.69
2022-12-11T06:08:58.176Z,97124.75
2022-12-11T06:11:35.843Z,97132.03
2022-12-11T06:14:04.224Z,97122.78
2022-12-11T06:16:31.404Z,97128.91
2022-12-11T06:18:58.829Z,97126.19
2022-12-11T06:21:31.233Z,97123.97
2022-12-11T06:24:06.436Z,97132.00
2022-12-11T06:26:33.265Z,97135.06
2022-12-11T06:29:00.478Z,97136.09
2022-12-11T06:31:27.467Z,97141.28
2022-12-11T06:33:55.027Z,97149.59
2022-12-11T06:36:24.313Z,97148.59
2022-12-11T06:38:51.347Z,97153.19
2022-12-11T06:41:18.192Z,97147.56
2022-12-11T06:43:45.105Z,97143.28
2022-12-11T06:46:15.093Z,97141.38
2022-12-11T06:48:43.329Z,97138.03
2022-12-11T06:51:14.233Z,97141.19
2022-12-11T06:53:41.763Z,97143.25
2022-12-11T06:56:15.904Z,97145.31
2022-12-11T06:58:44.378Z,97148.50
2022-12-11T07:01:23.569Z,97149.16
2022-12-11T07:03:53.759Z,97162.19
2022-12-11T07:06:20.461Z,97157.72
2022-12-11T07:08:49.669Z,97153.88
2022-12-11T07:11:18.557Z,97150.28
2022-12-11T07:13:46.526Z,97163.13
2022-12-11T07:16:15.715Z,97165.94
2022-12-11T07:18:47.700Z,97167.34
2022-12-11T07:21:15.050Z,97166.84
2022-12-11T07:23:42.194Z,97169.19
2022-12-11T07:26:13.020Z,97166.94
2022-12-11T07:28:40.360Z,97167.75
2022-12-11T07:31:10.620Z,97166.41
2022-12-11T07:33:37.665Z,97169.28
2022-12-11T07:36:05.601Z,97170.75
2022-12-11T07:38:33.029Z,97176.06
2022-12-11T07:41:05.497Z,97167.44
2022-12-11T07:43:32.936Z,97171.28
2022-12-11T07:46:05.305Z,97186.69
2022-12-11T07:48:32.521Z,97166.25
2022-12-11T07:51:19.656Z,97176.97
2022-12-11T07:53:49.726Z,97179.28
2022-12-11T07:56:19.328Z,97175.44
2022-12-11T07:58:46.567Z,97176.75
2022-12-11T08:01:17.508Z,97184.94
2022-12-11T08:03:44.699Z,97177.97
2022-12-11T08:06:12.790Z,97179.56
2022-12-11T08:08:41.529Z,97180.47
2022-12-11T08:11:11.997Z,97175.53
2022-12-11T08:13:39.125Z,97187.56
2022-12-11T08:16:09.671Z,97186.97
2022-12-11T08:18:38.755Z,97183.38
2022-12-11T08:21:07.631Z,97188.03
2022-12-11T08:23:34.600Z,97192.72
2022-12-11T08:26:06.836Z,97182.53
2022-12-11T08:28:33.711Z,97184.19
2022-12-11T08:31:01.029Z,97195.19
2022-12-11T08:33:27.731Z,97187.03
2022-12-11T08:35:54.367Z,97182.34
2022-12-11T08:38:25.327Z,97176.66
2022-12-11T08:40:52.494Z,97179.81
2022-12-11T08:43:19.074Z,97181.50
2022-12-11T08:45:47.285Z,97181.59
2022-12-11T08:48:13.952Z,97174.84
2022-12-11T08:50:40.813Z,97169.88
2022-12-11T08:53:08.275Z,97174.91
2022-12-11T08:55:34.937Z,97165.88
2022-12-11T08:58:02.100Z,97171.97
2022-12-11T09:00:28.749Z,97174.09
2022-12-11T09:02:55.388Z,97175.34
2022-12-11T09:05:22.137Z,97164.78
2022-12-11T09:07:48.797Z,97163.00
2022-12-11T09:10:15.565Z,97171.59
2022-12-11T09:12:43.042Z,97176.16
2022-12-11T09:15:10.534Z,97168.41
2022-12-11T09:17:37.471Z,97174.88
2022-12-11T09:20:05.015Z,97174.38
2022-12-11T09:22:33.654Z,97184.72
2022-12-11T09:25:03.301Z,97177.09
2022-12-11T09:27:29.928Z,97174.19
2022-12-11T09:29:56.538Z,97173.72
2022-12-11T09:32:23.191Z,97183.84
2022-12-11T09:34:51.411Z,97180.56
2022-12-11T09:37:18.022Z,97189.78
2022-12-11T09:39:44.672Z,97189.59
2022-12-11T09:42:44.725Z,97190.47
2022-12-11T09:45:15.099Z,97169.97
2022-12-11T09:47:45.643Z,97171.41
2022-12-11T09:50:22.458Z,97171.38
2022-12-11T09:52:58.109Z,97169.13
2022-12-11T09:55:29.849Z,97155.38
2022-12-11T09:58:23.078Z,97165.38
2022-12-11T10:01:02.556Z,97149.19
2022-12-11T10:04:07.031Z,97156.88
2022-12-11T10:06:43.228Z,97145.44
2022-12-11T10:09:20.269Z,97156.53
2022-12-11T10:11:57.166Z,97152.19
2022-12-11T10:14:33.146Z,97157.88
2022-12-11T10:17:10.022Z,97153.25
2022-12-11T10:19:37.110Z,97131.13
2022-12-11T10:22:03.976Z,97140.34
2022-12-11T10:25:10.197Z,97154.28
2022-12-11T10:27:31.917Z,97144.38
2022-12-11T10:30:14.118Z,97136.75
2022-12-11T10:32:46.876Z,97147.81
2022-12-11T10:35:39.868Z,97146.06
2022-12-11T10:38:17.577Z,97142.06
2022-12-11T10:40:50.016Z,97132.34
2022-12-11T10:43:16.754Z,97137.19
2022-12-11T10:45:54.263Z,97131.28
2022-12-11T10:48:22.356Z,97136.00
2022-12-11T10:50:58.985Z,97129.94
2022-12-11T10:53:26.415Z,97114.50
2022-12-11T10:55:53.848Z,97113.41
2022-12-11T10:58:38.040Z,97124.25
2022-12-11T11:01:15.535Z,97118.13
2022-12-11T11:03:57.535Z,97109.59
2022-12-11T11:06:25.793Z,97115.41
2022-12-11T11:08:58.396Z,97115.25
2022-12-11T11:11:28.156Z,97108.88
2022-12-11T11:14:18.435Z,97111.06
2022-12-11T11:16:53.127Z,97102.09
2022-12-11T11:19:30.891Z,97087.09
2022-12-11T11:22:01.394Z,97098.41
2022-12-11T11:24:41.655Z,97097.50
2022-12-11T11:27:33.426Z,97100.25
2022-12-11T11:30:10.584Z,97090.47
2022-12-11T11:32:42.094Z,97096.25
2022-12-11T11:35:12.443Z,97103.66
2022-12-11T11:37:45.378Z,97099.09
2022-12-11T11:40:20.061Z,97091.41
2022-12-11T11:42:58.210Z,97097.06
2022-12-11T11:45:35.077Z,97094.22
2022-12-11T11:48:31.656Z,97099.66
2022-12-11T11:50:58.618Z,97094.25
2022-12-11T11:53:37.324Z,97084.75
2022-12-11T11:56:35.770Z,97090.78
2022-12-11T11:59:24.956Z,97079.66
2022-12-11T12:01:55.907Z,97072.97
2022-12-11T12:04:22.965Z,97083.63
2022-12-11T12:07:04.515Z,97084.72
2022-12-11T12:09:40.344Z,97076.56
2022-12-11T12:12:43.428Z,97080.19
2022-12-11T12:15:10.178Z,97076.16
2022-12-11T12:17:50.406Z,97075.28
2022-12-11T12:20:58.821Z,97070.44
2022-12-11T12:23:43.721Z,97067.75
2022-12-11T12:26:41.100Z,97069.84
2022-12-11T12:29:49.331Z,97064.00
2022-12-11T12:32:25.273Z,97056.34
2022-12-11T12:35:14.087Z,97054.16
2022-12-11T12:38:06.263Z,97058.97
2022-12-11T12:40:42.512Z,97056.84
2022-12-11T12:43:33.841Z,97062.59
2022-12-11T12:46:18.033Z,97061.13
2022-12-11T12:48:45.521Z,97063.53
2022-12-11T12:51:18.712Z,97052.81
2022-12-11T12:54:00.764Z,97065.97
2022-12-11T12:56:30.749Z,97058.03
2022-12-11T12:58:57.856Z,97057.06
2022-12-11T13:01:27.322Z,97063.41
2022-12-11T13:04:16.778Z,97056.41
2022-12-11T13:06:54.961Z,97055.81
2022-12-11T13:09:27.892Z,97062.13
2022-12-11T13:12:01.603Z,97051.78
2022-12-11T13:14:33.827Z,97047.03
2022-12-11T13:17:22.594Z,97061.22
2022-12-11T13:19:51.641Z,97060.44
2022-12-11T13:22:24.529Z,97055.22
2022-12-11T13:25:04.163Z,97053.13
2022-12-11T13:27:44.405Z,97047.97
2022-12-11T13:30:14.163Z,97050.28
2022-12-11T13:32:55.064Z,97057.00
2022-12-11T13:35:21.877Z,97058.34
2022-12-11T13:37:55.432Z,97061.03
2022-12-11T13:40:26.774Z,97061.56
2022-12-11T13:43:02.224Z,97064.19
2022-12-11T13:45:50.456Z,97072.34
2022-12-11T13:48:25.725Z,97072.41
2022-12-11T13:50:54.380Z,97071.56
2022-12-11T13:53:22.752Z,97077.34
2022-12-11T13:56:01.734Z,97080.06
2022-12-11T13:58:31.265Z,97081.66
2022-12-11T14:01:07.767Z,97082.78
2022-12-11T14:03:35.825Z,97067.72
2022-12-11T14:06:03.848Z,97071.28
2022-12-11T14:08:37.272Z,97077.75
2022-12-11T14:11:05.542Z,97086.19
2022-12-11T14:13:55.713Z,97077.72
2022-12-11T14:16:24.340Z,97083.78
2022-12-11T14:18:52.567Z,97083.06
2022-12-11T14:21:25.055Z,97091.59
2022-12-11T14:24:06.504Z,97083.88
2022-12-11T14:26:37.981Z,97088.31
2022-12-11T14:29:06.118Z,97084.16
2022-12-11T14:31:43.169Z,97075.97
2022-12-11T14:34:44.487Z,97096.41
2022-12-11T14:37:15.856Z,97096.72
2022-12-11T14:40:10.233Z,97087.97
2022-12-11T14:42:49.080Z,97094.44
2022-12-11T14:45:33.713Z,97095.34
2022-12-11T14:48:03.509Z,97089.75
2022-12-11T14:50:43.763Z,97088.53
2022-12-11T14:53:15.626Z,97089.50
2022-12-11T14:55:43.179Z,97091.31
2022-12-11T14:58:19.041Z,97087.50
2022-12-11T15:01:06.553Z,97089.41
2022-12-11T15:03:41.423Z,97090.81
2022-12-11T15:06:27.923Z,97095.50
2022-12-11T15:08:54.896Z,97095.66
2022-12-11T15:11:22.609Z,97096.53
2022-12-11T15:13:59.293Z,97095.19
2022-12-11T15:16:31.544Z,97076.94
2022-12-11T15:18:59.014Z,97091.91
2022-12-11T15:21:36.089Z,97097.19
2022-12-11T15:24:05.364Z,97099.34
2022-12-11T15:26:39.656Z,97098.47
2022-12-11T15:29:24.155Z,97100.38
2022-12-11T15:32:07.636Z,97097.47
2022-12-11T15:34:52.044Z,97089.94
2022-12-11T15:37:40.769Z,97089.31
2022-12-11T15:40:08.106Z,97087.81
2022-12-11T15:42:39.051Z,97096.13
2022-12-11T15:45:09.567Z,97078.28
2022-12-11T15:47:36.823Z,97089.47
2022-12-11T15:50:22.360Z,97090.06
2022-12-11T15:52:50.123Z,97092.75
2022-12-11T15:55:23.331Z,97098.56
2022-12-11T15:57:55.794Z,97096.03
2022-12-11T16:00:28.186Z,97097.41
2022-12-11T16:02:55.982Z,97096.00
2022-12-11T16:05:23.136Z,97098.06
2022-12-11T16:07:54.891Z,97068.78
2022-12-11T16:10:22.505Z,97109.91
2022-12-11T16:12:50.205Z,97096.97
2022-12-11T16:15:23.166Z,97100.75
2022-12-11T16:17:50.487Z,97097.41
2022-12-11T16:20:17.700Z,97108.78
2022-12-11T16:22:46.861Z,97094.88
2022-12-11T16:25:13.746Z,97101.59
2022-12-11T16:27:40.749Z,97103.63
2022-12-11T16:30:07.901Z,97106.25
2022-12-11T16:32:37.581Z,97106.72
2022-12-11T16:35:04.623Z,97114.38
2022-12-11T16:37:31.291Z,97108.34
2022-12-11T16:39:58.390Z,97097.16
2022-12-11T16:42:25.138Z,97103.44
2022-12-11T16:44:51.927Z,97093.84
2022-12-11T16:47:18.551Z,97086.88
2022-12-11T16:49:49.627Z,97094.97
2022-12-11T16:52:21.978Z,97092.50
2022-12-11T16:54:49.158Z,97093.03
2022-12-11T16:57:15.908Z,97089.84
2022-12-11T16:59:43.501Z,97090.50
2022-12-11T17:02:11.694Z,97092.72
2022-12-11T17:04:38.705Z,97089.06
2022-12-11T17:07:05.781Z,97088.31
2022-12-11T17:09:32.889Z,97082.19
2022-12-11T17:11:59.313Z,97093.50
2022-12-11T17:14:25.966Z,97083.19
2022-12-11T17:16:53.748Z,97100.38
2022-12-11T17:19:20.712Z,97082.66
2022-12-11T17:21:51.578Z,97108.50
2022-12-11T17:24:19.991Z,97096.91
2022-12-11T17:26:46.969Z,97097.06
2022-12-11T17:29:13.936Z,97100.16
2022-12-11T17:31:41.095Z,97096.72
2022-12-11T17:34:07.773Z,97102.09
2022-12-11T17:36:34.972Z,97098.25
2022-12-11T17:39:03.380Z,97089.81
2022-12-11T17:41:29.872Z,97091.56
2022-12-11T17:43:56.594Z,97094.34
2022-12-11T17:46:23.571Z,97104.19
2022-12-11T17:48:52.354Z,97103.09
2022-12-11T17:51:26.149Z,97100.34
2022-12-11T17:54:05.851Z,97102.94
2022-12-11T17:56:37.898Z,97099.53
2022-12-11T17:59:18.626Z,97090.69
2022-12-11T18:01:48.926Z,97102.19
2022-12-11T18:04:24.759Z,97089.44
2022-12-11T18:06:57.622Z,97094.13
2022-12-11T18:09:27.953Z,97087.78
2022-12-11T18:11:55.842Z,97105.91
2022-12-11T18:14:22.857Z,97096.81
2022-12-11T18:16:57.992Z,97101.84
2022-12-11T18:19:27.090Z,97111.97
2022-12-11T18:21:54.886Z,97104.22
2022-12-11T18:24:31.895Z,97105.16
2022-12-11T18:27:02.628Z,97109.75
2022-12-11T18:29:55.553Z,97113.19
2022-12-11T18:32:27.855Z,97108.25
2022-12-11T18:35:06.284Z,97090.28
2022-12-11T18:37:49.167Z,97095.13
2022-12-11T18:40:17.172Z,97099.22
2022-12-11T18:42:46.994Z,97065.75
2022-12-11T18:45:14.489Z,97122.53
2022-12-11T18:47:44.672Z,97111.09
2022-12-11T18:50:11.341Z,97113.06
2022-12-11T18:52:38.154Z,97112.41
2022-12-11T18:55:05.725Z,97120.59
2022-12-11T18:57:33.306Z,97125.03
2022-12-11T19:00:09.455Z,97128.44
2022-12-11T19:02:41.286Z,97119.03
2022-12-11T19:05:08.661Z,97112.38
2022-12-11T19:07:36.961Z,97131.19
2022-12-11T19:10:09.036Z,97113.22
2022-12-11T19:12:49.661Z,97096.03
2022-12-11T19:15:27.149Z,97135.13
2022-12-11T19:17:54.374Z,97106.97
2022-12-11T19:23:07.991Z,97128.41
2022-12-11T19:25:34.679Z,97123.19
2022-12-11T19:28:01.404Z,97110.31
2022-12-11T19:30:28.243Z,97118.72
2022-12-11T19:32:55.077Z,97114.19
2022-12-11T19:35:22.317Z,97115.97
2022-12-11T19:37:49.157Z,97118.69
2022-12-11T19:40:16.624Z,97114.63
2022-12-11T19:42:43.704Z,97113.81
2022-12-11T19:45:11.431Z,97114.28
2022-12-11T19:47:39.276Z,97120.19
2022-12-11T19:50:06.567Z,97118.69
2022-12-11T19:52:33.549Z,97121.66
2022-12-11T19:55:04.333Z,97123.97
2022-12-11T19:57:32.872Z,97120.66
2022-12-11T20:00:00.491Z,97130.72
2022-12-11T20:02:28.688Z,97125.06
2022-12-11T20:04:55.629Z,97128.72
2022-12-11T20:07:27.419Z,97124.06
2022-12-11T20:09:57.382Z,97132.03
2022-12-11T20:12:24.617Z,97130.09
2022-12-11T20:14:51.532Z,97124.56
2022-12-11T20:17:18.282Z,97122.97
2022-12-11T20:19:44.995Z,97121.31
2022-12-11T20:22:30.476Z,97121.16
2022-12-11T20:24:57.455Z,97113.53
2022-12-11T20:27:26.373Z,97131.94
2022-12-11T20:29:54.049Z,97136.13
2022-12-11T20:32:21.554Z,97137.81
2022-12-11T20:34:48.265Z,97123.81
2022-12-11T20:37:15.004Z,97133.22
2022-12-11T20:39:42.020Z,97134.53
2022-12-11T20:42:09.706Z,97129.09
2022-12-11T20:44:36.413Z,97127.19
2022-12-11T20:47:03.359Z,97116.31
2022-12-11T20:49:29.985Z,97128.63
2022-12-11T20:51:57.003Z,97109.75
2022-12-11T20:54:24.009Z,97123.59
2022-12-11T20:56:51.000Z,97125.66
2022-12-11T20:59:17.991Z,97108.00
2022-12-11T21:01:45.355Z,97117.75
2022-12-11T21:04:12.298Z,97106.97
2022-12-11T21:06:40.699Z,97107.91
2022-12-11T21:09:17.872Z,97103.13
2022-12-11T21:11:45.235Z,97101.13
2022-12-11T21:14:11.896Z,97104.16
2022-12-11T21:16:40.725Z,97103.84
2022-12-11T21:19:11.218Z,97104.47
2022-12-11T21:21:40.957Z,97100.19
2022-12-11T21:24:14.174Z,97092.13
2022-12-11T21:26:40.954Z,97101.47
2022-12-11T21:29:10.976Z,97108.59
2022-12-11T21:31:37.996Z,97111.50
2022-12-11T21:34:04.695Z,97112.47
2022-12-11T21:36:31.563Z,97093.91
2022-12-11T21:38:59.912Z,97112.28
2022-12-11T21:41:27.335Z,97121.06
2022-12-11T21:46:42.878Z,97112.13
2022-12-11T21:49:10.121Z,97116.06
2022-12-11T21:51:41.516Z,97119.84
2022-12-11T21:54:14.432Z,97116.50
2022-12-11T21:56:41.596Z,97116.53
2022-12-11T21:59:09.437Z,97107.06
2022-12-11T22:01:42.233Z,97111.13
2022-12-11T22:04:10.583Z,97114.56
2022-12-11T22:06:37.722Z,97111.59
2022-12-11T22:09:05.732Z,97104.81
2022-12-11T22:11:34.690Z,97099.88
2022-12-11T22:14:02.049Z,97108.50
2022-12-11T22:16:28.943Z,97092.81
2022-12-11T22:18:55.879Z,97095.84
2022-12-11T22:21:22.879Z,97094.97
2022-12-11T22:23:50.034Z,97107.53
2022-12-11T22:26:21.063Z,97103.22
2022-12-11T22:28:49.190Z,97106.94
2022-12-11T22:31:19.742Z,97098.34
2022-12-11T22:33:49.571Z,97092.81
2022-12-11T22:36:18.771Z,97102.03
2022-12-11T22:38:45.501Z,97109.09
2022-12-11T22:41:18.947Z,97098.78
2022-12-11T22:43:49.946Z,97099.00
2022-12-11T22:46:18.847Z,97097.66
2022-12-11T22:48:45.602Z,97080.84
2022-12-11T22:51:12.551Z,97093.50
2022-12-11T22:53:40.125Z,97086.22
2022-12-11T22:56:08.221Z,97096.91
2022-12-11T22:58:35.105Z,97095.31
2022-12-11T23:01:02.939Z,97090.69
2022-12-11T23:03:29.577Z,97091.66
2022-12-11T23:05:57.357Z,97075.97
2022-12-11T23:08:26.582Z,97088.28
2022-12-11T23:10:53.601Z,97092.78
2022-12-11T23:13:20.333Z,97080.22
2022-12-11T23:15:46.945Z,97087.59
2022-12-11T23:18:14.038Z,97086.50
2022-12-11T23:20:40.638Z,97096.31
2022-12-11T23:23:07.278Z,97092.47
2022-12-11T23:25:34.342Z,97091.09
2022-12-11T23:28:00.888Z,97095.09
2022-12-11T23:30:27.538Z,97089.28
2022-12-11T23:32:54.370Z,97094.19
2022-12-11T23:35:21.150Z,97094.28
2022-12-11T23:37:48.086Z,97102.72
2022-12-11T23:40:15.017Z,97104.69
2022-12-11T23:42:41.676Z,97093.31
2022-12-11T23:45:08.709Z,97077.13
2022-12-11T23:47:35.327Z,97101.38
2022-12-11T23:50:02.131Z,97093.25
2022-12-11T23:52:28.933Z,97106.41
2022-12-11T23:54:55.670Z,97108.16
2022-12-11T23:57:23.473Z,97106.94
2022-12-11T23:59:50.229Z,97110.81
